TimeEST,TemperatureF,Dew PointF,Humidity,Sea Level PressureIn,VisibilityMPH,Wind Direction,Wind SpeedMPH,Gust SpeedMPH,PrecipitationIn,Events,Conditions,WindDirDegrees,DateUTC
12:15 AM,37.4,30.2,75,30.18,10.0,WSW,4.6,-,N/A,,Clear,250,2013-03-04 05:15:00
12:35 AM,37.4,30.2,75,30.18,10.0,WSW,3.5,-,N/A,,Clear,250,2013-03-04 05:35:00
12:55 AM,35.6,30.2,81,30.18,10.0,Calm,Calm,-,N/A,,Clear,0,2013-03-04 05:55:00
1:15 AM,33.8,30.2,87,30.18,10.0,Calm,Calm,-,N/A,,Clear,0,2013-03-04 06:15:00
1:35 AM,33.8,30.2,87,30.18,10.0,Calm,Calm,-,N/A,,Clear,0,2013-03-04 06:35:00
1:55 AM,35.6,30.2,81,30.18,10.0,WSW,3.5,-,N/A,,Clear,250,2013-03-04 06:55:00
2:15 AM,35.6,30.2,81,30.18,10.0,WSW,5.8,-,N/A,,Clear,250,2013-03-04 07:15:00
2:35 AM,33.8,30.2,87,30.17,9.0,West,3.5,-,N/A,,Clear,260,2013-03-04 07:35:00
2:55 AM,35.6,30.2,81,30.17,10.0,Calm,Calm,-,N/A,,Clear,0,2013-03-04 07:55:00
3:15 AM,33.8,30.2,87,30.17,10.0,West,3.5,-,N/A,,Clear,280,2013-03-04 08:15:00
3:35 AM,33.8,30.2,87,30.17,10.0,West,3.5,-,N/A,,Clear,260,2013-03-04 08:35:00
3:55 AM,33.8,30.2,87,30.16,10.0,Calm,Calm,-,N/A,,Clear,0,2013-03-04 08:55:00
4:15 AM,33.8,30.2,87,30.17,9.0,Calm,Calm,-,N/A,,Clear,0,2013-03-04 09:15:00
4:35 AM,32.0,30.2,93,30.17,10.0,West,3.5,-,N/A,,Clear,280,2013-03-04 09:35:00
4:55 AM,32.0,28.4,87,30.18,9.0,WNW,3.5,-,N/A,,Clear,300,2013-03-04 09:55:00
5:15 AM,32.0,30.2,93,30.18,10.0,West,3.5,-,N/A,,Clear,280,2013-03-04 10:15:00
5:35 AM,32.0,28.4,87,30.18,10.0,West,3.5,-,N/A,,Clear,280,2013-03-04 10:35:00
5:55 AM,33.8,30.2,87,30.19,10.0,WNW,3.5,-,N/A,,Clear,290,2013-03-04 10:55:00
6:15 AM,32.0,28.4,87,30.19,10.0,NW,4.6,-,N/A,,Clear,310,2013-03-04 11:15:00
6:35 AM,32.0,28.4,87,30.20,10.0,NW,4.6,-,N/A,,Clear,320,2013-03-04 11:35:00
7:15 AM,35.6,30.2,81,30.21,10.0,WNW,5.8,-,N/A,,Clear,300,2013-03-04 12:15:00
7:35 AM,37.4,28.4,70,30.22,10.0,WNW,5.8,-,N/A,,Clear,300,2013-03-04 12:35:00
7:55 AM,39.2,30.2,70,30.23,10.0,West,4.6,-,N/A,,Clear,280,2013-03-04 12:55:00
8:15 AM,39.2,30.2,70,30.24,10.0,NW,5.8,-,N/A,,Clear,310,2013-03-04 13:15:00
8:35 AM,42.8,30.2,61,30.25,10.0,NW,5.8,-,N/A,,Clear,320,2013-03-04 13:35:00
8:55 AM,44.6,28.4,53,30.25,10.0,NNW,9.2,-,N/A,,Clear,330,2013-03-04 13:55:00
9:15 AM,46.4,26.6,46,30.26,10.0,NNW,10.4,-,N/A,,Clear,340,2013-03-04 14:15:00
9:35 AM,46.4,23.0,40,30.26,9.0,NNW,10.4,-,N/A,,Clear,330,2013-03-04 14:35:00
9:55 AM,48.2,23.0,37,30.25,10.0,NW,12.7,16.1,N/A,,Clear,320,2013-03-04 14:55:00
10:15 AM,50.0,21.2,32,30.25,10.0,North,11.5,-,N/A,,Clear,360,2013-03-04 15:15:00
10:35 AM,51.8,21.2,30,30.25,10.0,North,9.2,-,N/A,,Clear,360,2013-03-04 15:35:00
10:55 AM,51.8,19.4,28,30.24,10.0,North,8.1,-,N/A,,Clear,350,2013-03-04 15:55:00
11:15 AM,53.6,21.2,28,30.24,10.0,NNW,8.1,-,N/A,,Clear,330,2013-03-04 16:15:00
11:35 AM,55.4,19.4,25,30.23,10.0,North,4.6,-,N/A,,Clear,360,2013-03-04 16:35:00
11:55 AM,55.4,19.4,25,30.23,10.0,North,4.6,-,N/A,,Clear,10,2013-03-04 16:55:00
12:15 PM,55.4,19.4,25,30.22,10.0,WNW,6.9,-,N/A,,Clear,300,2013-03-04 17:15:00
12:35 PM,57.2,19.4,23,30.22,10.0,Calm,Calm,-,N/A,,Clear,0,2013-03-04 17:35:00
12:55 PM,57.2,19.4,23,30.21,10.0,Calm,Calm,-,N/A,,Clear,0,2013-03-04 17:55:00
1:15 PM,59.0,19.4,22,30.19,10.0,North,5.8,-,N/A,,Clear,360,2013-03-04 18:15:00
1:55 PM,60.8,23.0,23,30.17,10.0,West,5.8,-,N/A,,Clear,280,2013-03-04 18:55:00
2:15 PM,60.8,24.8,25,30.16,10.0,Calm,Calm,-,N/A,,Clear,0,2013-03-04 19:15:00
2:35 PM,62.6,26.6,26,30.16,10.0,East,3.5,-,N/A,,Clear,100,2013-03-04 19:35:00
2:55 PM,62.6,26.6,26,30.15,10.0,NW,5.8,-,N/A,,Clear,320,2013-03-04 19:55:00
3:15 PM,62.6,28.4,27,30.15,9.0,NW,5.8,-,N/A,,Clear,320,2013-03-04 20:15:00
3:35 PM,64.4,28.4,26,30.15,10.0,North,5.8,-,N/A,,Clear,350,2013-03-04 20:35:00
3:55 PM,64.4,28.4,26,30.15,10.0,Calm,Calm,-,N/A,,Clear,0,2013-03-04 20:55:00
4:15 PM,64.4,28.4,26,30.15,8.0,Calm,Calm,-,N/A,,Clear,0,2013-03-04 21:15:00
4:35 PM,64.4,28.4,26,30.14,10.0,NW,5.8,-,N/A,,Clear,320,2013-03-04 21:35:00
4:55 PM,64.4,26.6,24,30.14,10.0,NNW,5.8,-,N/A,,Clear,330,2013-03-04 21:55:00
5:15 PM,64.4,28.4,26,30.15,10.0,Calm,Calm,-,N/A,,Clear,0,2013-03-04 22:15:00
5:35 PM,64.4,28.4,26,30.15,10.0,NNW,4.6,-,N/A,,Clear,330,2013-03-04 22:35:00
5:55 PM,62.6,28.4,27,30.15,10.0,North,3.5,-,N/A,,Clear,360,2013-03-04 22:55:00
6:15 PM,60.8,35.6,39,30.16,10.0,East,8.1,-,N/A,,Clear,90,2013-03-04 23:15:00
6:35 PM,57.2,35.6,44,30.16,10.0,East,4.6,-,N/A,,Clear,90,2013-03-04 23:35:00
6:55 PM,55.4,35.6,47,30.17,10.0,ESE,5.8,-,N/A,,Clear,110,2013-03-04 23:55:00
7:15 PM,53.6,37.4,54,30.18,10.0,ESE,4.6,-,N/A,,Clear,110,2013-03-05 00:15:00
7:35 PM,53.6,37.4,54,30.19,10.0,SE,3.5,-,N/A,,Clear,130,2013-03-05 00:35:00
7:55 PM,51.8,37.4,58,30.19,10.0,SE,3.5,-,N/A,,Clear,130,2013-03-05 00:55:00
8:15 PM,51.8,37.4,58,30.19,10.0,SE,3.5,-,N/A,,Clear,140,2013-03-05 01:15:00
8:35 PM,51.8,37.4,58,30.20,10.0,SE,3.5,-,N/A,,Clear,140,2013-03-05 01:35:00
8:55 PM,50.0,37.4,62,30.19,10.0,Calm,Calm,-,N/A,,Clear,0,2013-03-05 01:55:00
9:15 PM,48.2,39.2,71,30.20,10.0,Calm,Calm,-,N/A,,Clear,0,2013-03-05 02:15:00
9:35 PM,46.4,39.2,76,30.20,10.0,Calm,Calm,-,N/A,,Clear,0,2013-03-05 02:35:00
9:55 PM,48.2,37.4,66,30.20,10.0,Calm,Calm,-,N/A,,Clear,0,2013-03-05 02:55:00
10:15 PM,46.4,37.4,71,30.19,10.0,Calm,Calm,-,N/A,,Clear,0,2013-03-05 03:15:00
10:35 PM,48.2,39.2,71,30.20,10.0,Calm,Calm,-,N/A,,Clear,0,2013-03-05 03:35:00
10:55 PM,48.2,37.4,66,30.19,10.0,Calm,Calm,-,N/A,,Clear,0,2013-03-05 03:55:00
11:15 PM,46.4,37.4,71,30.19,10.0,Calm,Calm,-,N/A,,Clear,0,2013-03-05 04:15:00
11:35 PM,48.2,39.2,71,30.19,10.0,Calm,Calm,-,N/A,,Clear,0,2013-03-05 04:35:00
11:55 PM,44.6,37.4,76,30.19,10.0,Calm,Calm,-,N/A,,Clear,0,2013-03-05 04:55:00